createdAt,value
2022-09-23T00:01:49.563Z,10.58
2022-09-23T00:04:52.752Z,10.57
2022-09-23T00:07:56.112Z,10.56
2022-09-23T00:11:12.021Z,10.56
2022-09-23T00:14:15.013Z,10.55
2022-09-23T00:17:17.839Z,10.55
2022-09-23T00:20:20.850Z,10.55
2022-09-23T00:23:23.844Z,10.56
2022-09-23T00:26:27.653Z,10.57
2022-09-23T00:29:31.727Z,10.57
2022-09-23T00:32:36.046Z,10.56
2022-09-23T00:35:38.910Z,10.56
2022-09-23T00:38:42.529Z,10.55
2022-09-23T00:41:45.399Z,10.55
2022-09-23T00:44:51.414Z,10.54
2022-09-23T00:47:58.328Z,10.54
2022-09-23T00:51:01.868Z,10.53
2022-09-23T00:54:06.467Z,10.53
2022-09-23T00:57:11.238Z,10.53
2022-09-23T01:00:14.257Z,10.52
2022-09-23T01:03:18.586Z,10.52
2022-09-23T01:06:21.650Z,10.52
2022-09-23T01:09:25.339Z,10.51
2022-09-23T01:12:44.873Z,10.51
2022-09-23T01:15:58.421Z,10.50
2022-09-23T01:19:34.391Z,10.51
2022-09-23T01:22:39.951Z,10.51
2022-09-23T01:26:04.445Z,10.51
2022-09-23T01:29:23.944Z,10.51
2022-09-23T01:33:04.737Z,10.51
2022-09-23T01:36:19.143Z,10.51
2022-09-23T01:39:42.905Z,10.49
2022-09-23T01:42:52.964Z,10.49
2022-09-23T01:46:00.229Z,10.48
2022-09-23T01:49:10.801Z,10.47
2022-09-23T01:52:22.790Z,10.47
2022-09-23T01:55:34.121Z,10.46
2022-09-23T01:58:46.529Z,10.46
2022-09-23T02:01:57.053Z,10.45
2022-09-23T02:05:38.391Z,10.43
2022-09-23T02:08:52.237Z,10.43
2022-09-23T02:12:05.800Z,10.42
2022-09-23T02:15:19.284Z,10.42
2022-09-23T02:18:27.369Z,10.41
2022-09-23T02:21:35.692Z,10.40
2022-09-23T02:24:39.792Z,10.39
2022-09-23T02:27:51.799Z,10.38
2022-09-23T02:31:07.788Z,10.37
2022-09-23T02:34:25.866Z,10.35
2022-09-23T02:38:04.103Z,10.33
2022-09-23T02:41:21.784Z,10.31
2022-09-23T02:44:25.516Z,10.28
2022-09-23T02:47:31.672Z,10.25
2022-09-23T02:50:34.859Z,10.23
2022-09-23T02:53:38.358Z,10.20
2022-09-23T02:56:42.363Z,10.18
2022-09-23T02:59:46.796Z,10.15
2022-09-23T03:03:15.780Z,10.13
2022-09-23T03:06:32.890Z,10.10
2022-09-23T03:09:38.664Z,10.07
2022-09-23T03:12:53.053Z,10.03
2022-09-23T03:16:01.735Z,10.01
2022-09-23T03:19:32.990Z,9.97
2022-09-23T03:22:44.671Z,9.94
2022-09-23T03:25:50.401Z,9.92
2022-09-23T03:28:53.779Z,9.90
2022-09-23T03:31:58.102Z,9.88
2022-09-23T03:35:03.966Z,9.87
2022-09-23T03:38:16.910Z,9.85
2022-09-23T03:41:30.836Z,9.84
2022-09-23T03:44:39.738Z,9.84
2022-09-23T03:47:42.620Z,9.83
2022-09-23T03:50:45.507Z,9.83
2022-09-23T03:53:48.765Z,9.82
2022-09-23T03:56:52.080Z,9.81
2022-09-23T03:59:55.108Z,9.80
2022-09-23T04:02:57.983Z,9.78
2022-09-23T04:06:00.992Z,9.76
2022-09-23T04:09:04.037Z,9.75
2022-09-23T04:12:07.590Z,9.73
2022-09-23T04:15:10.776Z,9.71
2022-09-23T04:18:13.852Z,9.69
2022-09-23T04:21:16.865Z,9.66
2022-09-23T04:24:19.885Z,9.65
2022-09-23T04:27:22.772Z,9.62
2022-09-23T04:30:25.659Z,9.60
2022-09-23T04:33:28.613Z,9.58
2022-09-23T04:36:31.666Z,9.56
2022-09-23T04:39:34.869Z,9.54
2022-09-23T04:42:37.759Z,9.52
2022-09-23T04:45:40.759Z,9.50
2022-09-23T04:48:44.555Z,9.48
2022-09-23T04:51:47.660Z,9.47
2022-09-23T04:54:50.573Z,9.45
2022-09-23T04:57:53.514Z,9.45
2022-09-23T05:01:00.575Z,9.43
2022-09-23T05:04:10.704Z,9.43
2022-09-23T05:07:13.631Z,9.43
2022-09-23T05:10:16.713Z,9.43
2022-09-23T05:13:19.600Z,9.44
2022-09-23T05:16:24.166Z,9.44
2022-09-23T05:19:27.204Z,9.44
2022-09-23T05:22:30.297Z,9.45
2022-09-23T05:25:38.099Z,9.46
2022-09-23T05:28:41.362Z,9.48
2022-09-23T05:31:44.332Z,9.48
2022-09-23T05:34:47.336Z,9.49
2022-09-23T05:37:50.241Z,9.50
2022-09-23T05:41:00.971Z,9.51
2022-09-23T05:44:04.280Z,9.53
2022-09-23T05:47:07.492Z,9.55
2022-09-23T05:50:10.840Z,9.58
2022-09-23T05:53:13.794Z,9.61
2022-09-23T05:56:20.685Z,9.63
2022-09-23T05:59:24.001Z,9.66
2022-09-23T06:02:27.615Z,9.69
2022-09-23T06:05:31.164Z,9.71
2022-09-23T06:08:34.695Z,9.75
2022-09-23T06:11:37.800Z,9.78
2022-09-23T06:14:40.771Z,9.82
2022-09-23T06:17:44.007Z,9.85
2022-09-23T06:20:47.017Z,9.88
2022-09-23T06:23:52.943Z,9.91
2022-09-23T06:27:01.068Z,9.92
2022-09-23T06:30:05.371Z,9.95
2022-09-23T06:33:08.511Z,9.97
2022-09-23T06:36:17.703Z,9.99
2022-09-23T06:39:27.848Z,10.02
2022-09-23T06:42:30.829Z,10.05
2022-09-23T06:45:34.332Z,10.09
2022-09-23T06:48:37.281Z,10.13
2022-09-23T06:51:41.662Z,10.15
2022-09-23T06:54:50.725Z,10.18
2022-09-23T06:57:55.260Z,10.21
2022-09-23T07:01:07.389Z,10.26
2022-09-23T07:04:10.894Z,10.31
2022-09-23T07:07:16.496Z,10.34
2022-09-23T07:10:19.548Z,10.38
2022-09-23T07:13:23.858Z,10.41
2022-09-23T07:16:26.983Z,10.43
2022-09-23T07:19:30.097Z,10.44
2022-09-23T07:22:33.109Z,10.48
2022-09-23T07:25:36.088Z,10.50
2022-09-23T07:28:39.530Z,10.53
2022-09-23T07:31:42.732Z,10.57
2022-09-23T07:34:47.365Z,10.58
2022-09-23T07:37:50.774Z,10.60
2022-09-23T07:40:53.851Z,10.63
2022-09-23T07:44:01.762Z,10.66
2022-09-23T07:47:05.192Z,10.69
2022-09-23T07:50:11.644Z,10.71
2022-09-23T07:53:15.696Z,10.75
2022-09-23T07:56:20.367Z,10.79
2022-09-23T07:59:23.567Z,10.82
2022-09-23T08:02:26.960Z,10.86
2022-09-23T08:05:30.084Z,10.91
2022-09-23T08:08:33.191Z,10.95
2022-09-23T08:11:39.583Z,11.00
2022-09-23T08:14:42.825Z,11.05
2022-09-23T08:17:46.247Z,11.10
2022-09-23T08:20:49.609Z,11.16
2022-09-23T08:23:52.609Z,11.21
2022-09-23T08:26:55.759Z,11.26
2022-09-23T08:29:58.752Z,11.32
2022-09-23T08:33:01.791Z,11.37
2022-09-23T08:36:05.133Z,11.42
2022-09-23T08:39:08.410Z,11.47
2022-09-23T08:42:20.685Z,11.51
2022-09-23T08:45:26.983Z,11.56
2022-09-23T08:48:38.620Z,11.62
2022-09-23T08:51:47.040Z,11.68
2022-09-23T08:54:55.127Z,11.73
2022-09-23T08:58:35.972Z,11.79
2022-09-23T09:01:42.222Z,11.88
2022-09-23T09:04:51.266Z,11.97
2022-09-23T09:07:57.682Z,12.09
2022-09-23T09:11:01.268Z,12.25
2022-09-23T09:14:26.149Z,12.41
2022-09-23T09:17:38.427Z,12.61
2022-09-23T09:21:02.867Z,12.81
2022-09-23T09:24:17.562Z,13.02
2022-09-23T09:27:20.727Z,13.22
2022-09-23T09:30:25.617Z,13.40
2022-09-23T09:33:40.675Z,13.56
2022-09-23T09:36:50.223Z,13.71
2022-09-23T09:39:53.260Z,13.85
2022-09-23T09:42:56.627Z,13.98
2022-09-23T09:46:46.148Z,14.12
2022-09-23T09:49:59.117Z,14.25
2022-09-23T09:53:35.734Z,14.31
2022-09-23T09:56:40.059Z,14.38
2022-09-23T09:59:44.193Z,14.45
2022-09-23T10:02:52.634Z,14.54
2022-09-23T10:05:57.776Z,14.62
2022-09-23T10:09:13.855Z,14.71
2022-09-23T10:12:19.933Z,14.84
2022-09-23T10:15:33.422Z,15.03
2022-09-23T10:18:51.063Z,15.21
2022-09-23T10:21:57.060Z,15.41
2022-09-23T10:25:04.053Z,15.64
2022-09-23T10:29:01.132Z,15.86
2022-09-23T10:32:28.456Z,16.07
2022-09-23T10:35:33.585Z,16.25
2022-09-23T10:38:36.707Z,16.44
2022-09-23T10:42:07.351Z,16.67
2022-09-23T10:45:46.193Z,16.88
2022-09-23T10:48:59.292Z,17.07
2022-09-23T10:52:18.428Z,17.26
2022-09-23T10:55:45.580Z,17.46
2022-09-23T10:59:03.656Z,17.64
2022-09-23T11:02:22.165Z,17.81
2022-09-23T11:05:36.200Z,17.80
2022-09-23T11:08:54.069Z,17.63
2022-09-23T11:11:57.108Z,17.41
2022-09-23T11:15:37.743Z,17.18
2022-09-23T11:19:04.193Z,16.93
2022-09-23T11:22:38.068Z,16.70
2022-09-23T11:26:02.904Z,16.45
2022-09-23T11:29:43.588Z,16.23
2022-09-23T11:32:52.671Z,16.03
2022-09-23T11:36:12.734Z,16.00
2022-09-23T11:39:49.390Z,16.09
2022-09-23T11:43:01.740Z,16.20
2022-09-23T11:46:42.254Z,16.31
2022-09-23T11:49:52.237Z,16.41
2022-09-23T11:53:03.100Z,16.51
2022-09-23T11:56:23.414Z,16.65
2022-09-23T11:59:41.175Z,16.82
2022-09-23T12:03:08.207Z,16.98
2022-09-23T12:06:20.445Z,17.16
2022-09-23T12:09:57.288Z,17.28
2022-09-23T12:13:10.309Z,17.45
2022-09-23T12:16:20.218Z,17.60
2022-09-23T12:19:57.321Z,17.74
2022-09-23T12:23:18.576Z,17.87
2022-09-23T12:26:25.322Z,17.96
2022-09-23T12:29:32.187Z,18.02
2022-09-23T12:32:35.408Z,18.05
2022-09-23T12:35:43.069Z,18.07
2022-09-23T12:38:53.310Z,18.05
2022-09-23T12:42:03.555Z,18.00
2022-09-23T12:45:35.135Z,17.90
2022-09-23T12:49:00.858Z,17.80
2022-09-23T12:52:16.500Z,17.66
2022-09-23T12:55:23.280Z,17.50
2022-09-23T12:58:43.003Z,17.36
2022-09-23T13:01:46.138Z,17.20
2022-09-23T13:05:26.503Z,17.04
2022-09-23T13:08:29.988Z,16.87
2022-09-23T13:11:33.385Z,16.72
2022-09-23T13:14:37.969Z,16.57
2022-09-23T13:17:41.299Z,16.44
2022-09-23T13:20:47.095Z,16.32
2022-09-23T13:24:21.080Z,16.20
2022-09-23T13:27:29.027Z,16.10
2022-09-23T13:30:31.995Z,16.02
2022-09-23T13:33:42.680Z,15.94
2022-09-23T13:36:47.991Z,15.87
2022-09-23T13:39:51.607Z,15.81
2022-09-23T13:43:00.791Z,15.77
2022-09-23T13:46:18.432Z,15.73
2022-09-23T13:49:28.491Z,15.70
2022-09-23T13:52:33.406Z,15.70
2022-09-23T13:55:39.273Z,15.71
2022-09-23T13:58:43.518Z,15.74
2022-09-23T14:01:47.210Z,15.75
2022-09-23T14:04:50.902Z,15.75
2022-09-23T14:07:56.471Z,15.72
2022-09-23T14:11:00.161Z,15.68
2022-09-23T14:14:07.803Z,15.62
2022-09-23T14:17:17.187Z,15.56
2022-09-23T14:20:27.237Z,15.49
2022-09-23T14:23:30.573Z,15.42
2022-09-23T14:26:33.710Z,15.35
2022-09-23T14:29:40.403Z,15.27
2022-09-23T14:32:43.983Z,15.19
2022-09-23T14:35:52.328Z,15.10
2022-09-23T14:39:11.429Z,15.01
2022-09-23T14:42:15.543Z,14.91
2022-09-23T14:45:25.797Z,14.83
2022-09-23T14:48:33.072Z,14.73
2022-09-23T14:51:43.873Z,14.66
2022-09-23T14:54:47.142Z,14.57
2022-09-23T14:58:02.112Z,14.50
2022-09-23T15:01:25.388Z,14.41
2022-09-23T15:04:31.082Z,14.34
2022-09-23T15:07:37.454Z,14.28
2022-09-23T15:10:41.260Z,14.21
2022-09-23T15:13:49.770Z,14.16
2022-09-23T15:16:53.393Z,14.11
2022-09-23T15:19:59.809Z,14.08
2022-09-23T15:23:03.197Z,14.05
2022-09-23T15:26:10.041Z,14.02
2022-09-23T15:29:12.981Z,14.00
2022-09-23T15:32:16.699Z,13.98
2022-09-23T15:35:22.785Z,13.97
2022-09-23T15:38:27.320Z,13.95
2022-09-23T15:41:33.037Z,13.94
2022-09-23T15:44:36.889Z,13.92
2022-09-23T15:47:39.918Z,13.91
2022-09-23T15:50:43.235Z,13.88
2022-09-23T15:53:47.904Z,13.87
2022-09-23T15:56:52.729Z,13.85
2022-09-23T16:00:00.110Z,13.82
2022-09-23T16:03:06.687Z,13.79
2022-09-23T16:06:13.544Z,13.76
2022-09-23T16:09:16.664Z,13.72
2022-09-23T16:12:19.659Z,13.68
2022-09-23T16:15:24.806Z,13.63
2022-09-23T16:18:27.799Z,13.59
2022-09-23T16:21:30.763Z,13.53
2022-09-23T16:24:33.718Z,13.48
2022-09-23T16:27:36.717Z,13.43
2022-09-23T16:30:39.694Z,13.38
2022-09-23T16:33:44.348Z,13.33
2022-09-23T16:36:47.795Z,13.28
2022-09-23T16:39:51.573Z,13.23
2022-09-23T16:42:55.950Z,13.18
2022-09-23T16:45:59.055Z,13.13
2022-09-23T16:49:02.603Z,13.09
2022-09-23T16:52:05.722Z,13.04
2022-09-23T16:55:10.414Z,13.00
2022-09-23T16:58:13.353Z,12.96
2022-09-23T17:01:46.134Z,12.93
2022-09-23T17:04:50.353Z,12.87
2022-09-23T17:07:53.424Z,12.83
2022-09-23T17:10:58.955Z,12.78
2022-09-23T17:14:02.157Z,12.74
2022-09-23T17:17:06.777Z,12.70
2022-09-23T17:20:09.722Z,12.67
2022-09-23T17:23:12.664Z,12.62
2022-09-23T17:26:15.590Z,12.58
2022-09-23T17:29:18.485Z,12.53
2022-09-23T17:32:21.421Z,12.48
2022-09-23T17:35:24.401Z,12.44
2022-09-23T17:38:29.311Z,12.41
2022-09-23T17:41:32.642Z,12.37
2022-09-23T17:44:36.354Z,12.34
2022-09-23T17:47:41.787Z,12.31
2022-09-23T17:50:57.085Z,12.29
2022-09-23T17:54:00.044Z,12.26
2022-09-23T17:57:03.074Z,12.22
2022-09-23T18:00:07.256Z,12.18
2022-09-23T18:03:15.093Z,12.15
2022-09-23T18:06:20.337Z,12.11
2022-09-23T18:09:23.823Z,12.07
2022-09-23T18:12:26.809Z,12.03
2022-09-23T18:15:29.972Z,12.01
2022-09-23T18:18:33.372Z,11.97
2022-09-23T18:21:38.764Z,11.96
2022-09-23T18:24:42.514Z,11.93
2022-09-23T18:27:45.445Z,11.91
2022-09-23T18:30:56.240Z,11.90
2022-09-23T18:33:59.463Z,11.87
2022-09-23T18:37:02.751Z,11.85
2022-09-23T18:40:09.304Z,11.82
2022-09-23T18:43:19.469Z,11.79
2022-09-23T18:46:32.525Z,11.75
2022-09-23T18:49:53.907Z,11.70
2022-09-23T18:53:00.384Z,11.65
2022-09-23T18:56:08.729Z,11.62
2022-09-23T18:59:16.876Z,11.59
2022-09-23T19:02:20.200Z,11.56
2022-09-23T19:05:23.712Z,11.54
2022-09-23T19:08:27.080Z,11.52
2022-09-23T19:11:32.289Z,11.49
2022-09-23T19:14:35.379Z,11.47
2022-09-23T19:17:38.389Z,11.45
2022-09-23T19:20:54.332Z,11.43
2022-09-23T19:24:03.980Z,11.40
2022-09-23T19:27:08.163Z,11.36
2022-09-23T19:30:13.913Z,11.33
2022-09-23T19:33:20.960Z,11.31
2022-09-23T19:36:27.008Z,11.29
2022-09-23T19:39:34.899Z,11.27
2022-09-23T19:42:38.491Z,11.25
2022-09-23T19:45:46.354Z,11.23
2022-09-23T19:48:52.608Z,11.21
2022-09-23T19:51:56.410Z,11.19
2022-09-23T19:55:01.071Z,11.17
2022-09-23T19:58:05.420Z,11.14
2022-09-23T20:01:10.473Z,11.13
2022-09-23T20:04:15.942Z,11.10
2022-09-23T20:07:19.423Z,11.09
2022-09-23T20:10:23.209Z,11.07
2022-09-23T20:13:34.036Z,11.05
2022-09-23T20:16:37.387Z,11.03
2022-09-23T20:19:45.151Z,11.02
2022-09-23T20:22:52.227Z,11.00
2022-09-23T20:26:18.150Z,10.98
2022-09-23T20:29:23.745Z,10.96
2022-09-23T20:32:30.212Z,10.95
2022-09-23T20:35:33.278Z,10.93
2022-09-23T20:38:37.235Z,10.91
2022-09-23T20:41:46.182Z,10.88
2022-09-23T20:44:49.190Z,10.85
2022-09-23T20:47:59.857Z,10.84
2022-09-23T20:51:04.998Z,10.83
2022-09-23T20:54:08.303Z,10.83
2022-09-23T20:57:15.287Z,10.81
2022-09-23T21:00:21.412Z,10.78
2022-09-23T21:03:26.648Z,10.76
2022-09-23T21:06:34.436Z,10.73
2022-09-23T21:09:38.432Z,10.71
2022-09-23T21:12:41.363Z,10.69
2022-09-23T21:15:47.449Z,10.66
2022-09-23T21:18:51.655Z,10.64
2022-09-23T21:22:02.467Z,10.62
2022-09-23T21:28:34.303Z,10.59
2022-09-23T21:31:47.538Z,10.57
2022-09-23T21:34:50.598Z,10.54
2022-09-23T21:37:53.633Z,10.50
2022-09-23T21:41:00.575Z,10.46
2022-09-23T21:44:06.880Z,10.43
2022-09-23T21:47:13.932Z,10.41
2022-09-23T21:50:17.300Z,10.39
2022-09-23T21:53:20.927Z,10.37
2022-09-23T21:56:31.415Z,10.35
2022-09-23T21:59:34.386Z,10.32
2022-09-23T22:02:41.146Z,10.31
2022-09-23T22:05:44.172Z,10.31
2022-09-23T22:08:50.248Z,10.29
2022-09-23T22:12:05.171Z,10.29
2022-09-23T22:15:09.921Z,10.28
2022-09-23T22:18:12.783Z,10.27
2022-09-23T22:21:15.757Z,10.26
2022-09-23T22:24:18.623Z,10.30
2022-09-23T22:27:21.557Z,10.37
2022-09-23T22:30:42.709Z,10.39
2022-09-23T22:33:45.732Z,10.40
2022-09-23T22:36:48.617Z,10.40
2022-09-23T22:39:51.537Z,10.41
2022-09-23T22:42:54.398Z,10.43
2022-09-23T22:45:57.369Z,10.44
2022-09-23T22:49:00.304Z,10.46
2022-09-23T22:52:07.084Z,10.47
2022-09-23T22:55:11.269Z,10.49
2022-09-23T22:58:31.304Z,10.51
2022-09-23T23:01:36.020Z,10.54
2022-09-23T23:04:38.904Z,10.56
2022-09-23T23:07:41.889Z,10.59
2022-09-23T23:10:44.820Z,10.60
2022-09-23T23:13:47.682Z,10.62
2022-09-23T23:16:50.766Z,10.64
2022-09-23T23:19:53.870Z,10.66
2022-09-23T23:22:56.905Z,10.68
2022-09-23T23:26:09.691Z,10.69
2022-09-23T23:29:14.806Z,10.70
2022-09-23T23:32:17.679Z,10.72
2022-09-23T23:35:20.865Z,10.73
2022-09-23T23:38:23.847Z,10.74
2022-09-23T23:41:27.899Z,10.75
2022-09-23T23:44:34.463Z,10.75
2022-09-23T23:47:37.509Z,10.77
2022-09-23T23:50:40.455Z,10.78
2022-09-23T23:53:43.753Z,10.78
2022-09-23T23:56:46.739Z,10.79
2022-09-23T23:59:50.180Z,10.79
